Nissho Maru No7 — JH3472 — position and weather

sailwx.info

Track history (hours):
 
Tides and Currents Weather Stations Pressure Air Temp Water Temp Dewpoint Dewpoint Depression Visibility Wind Speed Wind Dir Waves Ship Positions

Nissho Maru No7

Last reported at 2014-Jul-30 13:10 UTC. Time now 2014-Aug-01 07:52 UTC.
Position N 36°36' E 140°56'.

Length 71 m.

MMSI: 431200355.

Date/timePositionNaut miles runAvg speedWind from/ knotsBaromVisibWave heightAir tempDewpointWater temp
2014-Jul-30 13:10N 36°36' E 140°56'3611.8
2014-Jul-30 10:06N 36°02' E 140°44'611.5
2014-Jul-30 09:33N 35°56' E 140°42'1 0.1
2014-Jul-29 21:10N 35°55' E 140°40'0 0.0
2014-Jul-29 20:28N 35°55' E 140°40'0 0.0
2014-Jul-29 18:16N 35°55' E 140°40'0 0.0
2014-Jul-29 17:22N 35°55' E 140°40'0 0.0
2014-Jul-29 16:16N 35°55' E 140°40'0 0.0
2014-Jul-29 15:22N 35°55' E 140°40'0 0.0
2014-Jul-29 14:28N 35°55' E 140°40'0 0.1
2014-Jul-29 13:29N 35°55' E 140°41'7 7.7
2014-Jul-29 12:33N 36°01' E 140°44'13 0.3
2014-Jul-27 21:33N 35°53' E 140°57'1111.6
2014-Jul-27 20:33N 35°42' E 140°54'1111.1
2014-Jul-27 19:32N 35°33' E 140°46'1111.3
2014-Jul-27 18:33N 35°24' E 140°37'1111.1
2014-Jul-27 17:33N 35°15' E 140°29'1512.3
2014-Jul-27 16:22N 35°05' E 140°17'1313.9
2014-Jul-27 15:28N 34°58' E 140°04'468 9.6
2014-Jul-25 14:32N 33°58' E 130°41'  
2014-Jul-21 17:12N 33°38' E 129°51'811.0
2014-Jul-21 16:31N 33°42' E 129°59'1010.9
2014-Jul-21 15:33N 33°48' E 130°09'23110.0
2014-Jul-20 16:30N 34°07' E 134°46'  
Track history (hours):
 
Tides and Currents Weather Stations Pressure Air Temp Water Temp Dewpoint Dewpoint Depression Visibility Wind Speed Wind Dir Waves Ship Positions

Nissho Maru No7

Last reported at 2014-Jul-30 13:10 UTC. Time now 2014-Aug-01 07:52 UTC.
Position N 36°36' E 140°56'.

Length 71 m.

MMSI: 431200355.

Date/timePositionNaut miles runAvg speedWind from/ knotsBaromVisibWave heightAir tempDewpointWater temp
2014-Jul-30 13:10N 36°36' E 140°56'3611.8
2014-Jul-30 10:06N 36°02' E 140°44'611.5
2014-Jul-30 09:33N 35°56' E 140°42'1 0.1
2014-Jul-29 21:10N 35°55' E 140°40'0 0.0
2014-Jul-29 20:28N 35°55' E 140°40'0 0.0
2014-Jul-29 18:16N 35°55' E 140°40'0 0.0
2014-Jul-29 17:22N 35°55' E 140°40'0 0.0
2014-Jul-29 16:16N 35°55' E 140°40'0 0.0
2014-Jul-29 15:22N 35°55' E 140°40'0 0.0
2014-Jul-29 14:28N 35°55' E 140°40'0 0.1
2014-Jul-29 13:29N 35°55' E 140°41'7 7.7
2014-Jul-29 12:33N 36°01' E 140°44'13 0.3
2014-Jul-27 21:33N 35°53' E 140°57'1111.6
2014-Jul-27 20:33N 35°42' E 140°54'1111.1
2014-Jul-27 19:32N 35°33' E 140°46'1111.3
2014-Jul-27 18:33N 35°24' E 140°37'1111.1
2014-Jul-27 17:33N 35°15' E 140°29'1512.3
2014-Jul-27 16:22N 35°05' E 140°17'1313.9
2014-Jul-27 15:28N 34°58' E 140°04'468 9.6
2014-Jul-25 14:32N 33°58' E 130°41'  
2014-Jul-21 17:12N 33°38' E 129°51'811.0
2014-Jul-21 16:31N 33°42' E 129°59'1010.9
2014-Jul-21 15:33N 33°48' E 130°09'23110.0
2014-Jul-20 16:30N 34°07' E 134°46'  

Dump ship's entire track history